createdAt,value
2022-10-18T00:00:58.843Z,14.6
2022-10-18T00:10:59.779Z,14.6
2022-10-18T00:21:00.592Z,14.6
2022-10-18T00:31:01.101Z,14.6
2022-10-18T00:41:01.607Z,14.5
2022-10-18T01:01:02.839Z,14.4
2022-10-18T01:31:04.389Z,14.5
2022-10-18T01:41:05.028Z,14.4
2022-10-18T01:51:05.850Z,14.4
2022-10-18T02:21:06.901Z,14.4
2022-10-18T02:31:07.734Z,14.4
2022-10-18T03:11:09.564Z,14.4
2022-10-18T03:31:10.477Z,14.4
2022-10-18T04:21:13.214Z,14.3
2022-10-18T04:21:35.129Z,14.3
2022-10-18T04:41:19.409Z,14.3
2022-10-18T04:51:19.797Z,14.3
2022-10-18T05:01:20.933Z,14.3
2022-10-18T05:11:20.977Z,14.3
2022-10-18T05:21:21.852Z,14.3
2022-10-18T05:31:22.087Z,14.2
2022-10-18T05:41:22.287Z,14.2
2022-10-18T05:51:22.462Z,14.2
2022-10-18T06:11:23.466Z,14.1
2022-10-18T06:21:23.833Z,14.2
2022-10-18T06:31:24.430Z,14.2
2022-10-18T06:41:24.816Z,14.3
2022-10-18T07:11:26.996Z,14.5
2022-10-18T07:51:29.156Z,14.7
2022-10-18T08:11:29.735Z,14.8
2022-10-18T08:21:30.709Z,14.8
2022-10-18T08:31:31.258Z,15
2022-10-18T08:41:31.530Z,15.2
2022-10-18T08:51:31.892Z,15.4
2022-10-18T09:01:32.978Z,15.4
2022-10-18T09:11:33.480Z,15.5
2022-10-18T09:21:33.980Z,15.8
2022-10-18T09:41:34.457Z,16.9
2022-10-18T10:51:38.504Z,17.5
2022-10-18T11:11:39.208Z,17.4
2022-10-18T11:21:39.849Z,17.5
2022-10-18T11:31:40.710Z,17.4
2022-10-18T11:51:56.280Z,17.6
2022-10-18T12:01:42.701Z,18.1
2022-10-18T12:11:45.453Z,18
2022-10-18T12:21:44.358Z,18
2022-10-18T12:31:45.399Z,18.5
2022-10-18T12:41:46.196Z,18.6
2022-10-18T12:51:47.227Z,18.6
2022-10-18T13:01:47.854Z,18.7
2022-10-18T13:21:48.962Z,19
2022-10-18T13:31:49.701Z,19.2
2022-10-18T13:51:50.868Z,19.3
2022-10-18T14:01:53.243Z,19.3
2022-10-18T14:11:51.544Z,19.3
2022-10-18T14:21:52.183Z,19
2022-10-18T14:31:52.763Z,19
2022-10-18T14:41:53.618Z,18.8
2022-10-18T14:51:54.187Z,18.8
2022-10-18T15:01:55.022Z,18.7
2022-10-18T15:11:55.377Z,18.4
2022-10-18T15:22:13.632Z,17.8
2022-10-18T15:31:56.680Z,17.5
2022-10-18T15:41:57.135Z,17.2
2022-10-18T15:51:58.255Z,16.9
2022-10-18T16:01:58.503Z,16.7
2022-10-18T16:11:59.118Z,16.4
2022-10-18T16:22:03.802Z,15.9
2022-10-18T16:32:00.369Z,15.5
2022-10-18T16:42:00.672Z,15
2022-10-18T16:52:01.301Z,14.6
2022-10-18T17:02:01.992Z,14.1
2022-10-18T17:12:02.662Z,13.6
2022-10-18T17:22:03.335Z,13.3
2022-10-18T17:32:04.072Z,13.1
2022-10-18T17:42:04.768Z,12.7
2022-10-18T17:52:06.841Z,12.2
2022-10-18T18:02:05.486Z,12
2022-10-18T18:12:05.690Z,11.7
2022-10-18T18:22:06.381Z,11.4
2022-10-18T18:32:07.136Z,11.1
2022-10-18T18:42:07.657Z,11
2022-10-18T18:52:08.425Z,10.9
2022-10-18T19:02:08.699Z,10.6
2022-10-18T19:12:09.728Z,10.3
2022-10-18T19:22:10.067Z,10.1
2022-10-18T19:32:10.489Z,10
2022-10-18T19:42:11.120Z,9.7
2022-10-18T19:52:11.544Z,9.6
2022-10-18T20:02:12.482Z,9.6
2022-10-18T20:12:13.459Z,9.6
2022-10-18T20:22:13.942Z,9.5
2022-10-18T20:42:14.996Z,9.5
2022-10-18T20:52:15.386Z,9.2
2022-10-18T21:02:15.604Z,9.1
2022-10-18T21:12:16.689Z,9
2022-10-18T21:22:17.358Z,8.8
2022-10-18T21:32:17.746Z,8.6
2022-10-18T21:52:18.467Z,8.1
2022-10-18T22:02:19.448Z,8
2022-10-18T22:12:20.102Z,7.8
2022-10-18T22:22:21.033Z,7.7
2022-10-18T22:32:21.249Z,7.6
2022-10-18T22:42:21.879Z,7.5
2022-10-18T22:52:22.509Z,7.3
2022-10-18T23:02:22.875Z,7.2
2022-10-18T23:12:23.047Z,7.2
2022-10-18T23:32:24.492Z,7.1
2022-10-18T23:42:25.530Z,7
2022-10-18T23:52:25.934Z,6.8
